Time;durP1;ratioP1;P1;durP2;ratioP2;P2;SDS_P1;SDS_P2;PMS_P1;PMS_P2;Temp;Humidity;BMP_temperature;BMP_pressure;BME280_temperature;BME280_humidity;BME280_pressure;Samples;Min_cycle;Max_cycle;Signal;HPM_P1;HPM_P2
2021/03/26 00:01:00;;;;;;;;;35.30;29.50;;;;;1.17;49.65;100109.71;496649;109;385672;-54
2021/03/26 00:02:05;;;;;;;;;40.30;32.80;;;;;1.17;48.79;100101.96;493507;109;384378;-55
2021/03/26 00:03:10;;;;;;;;;26.70;18.00;;;;;1.10;49.18;100103.17;496446;109;382449;-55
2021/03/26 00:04:15;;;;;;;;;38.70;33.90;;;;;1.01;49.73;100109.61;491622;109;385165;-53
2021/03/26 00:05:19;;;;;;;;;35.40;30.10;;;;;1.01;49.73;100109.61;487674;111;391690;-55
2021/03/26 00:06:25;;;;;;;;;33.00;27.30;;;;;0.90;51.02;100104.09;484593;111;385547;-55
2021/03/26 00:07:29;;;;;;;;;34.60;26.50;;;;;0.90;51.02;100104.09;487233;111;386525;-53
2021/03/26 00:08:33;;;;;;;;;38.00;29.00;;;;;0.91;49.91;100105.77;488154;111;387449;-54
2021/03/26 00:09:37;;;;;;;;;38.10;31.10;;;;;0.83;50.30;100115.63;486382;109;384547;-53
2021/03/26 00:10:42;;;;;;;;;37.00;29.40;;;;;0.83;50.30;100115.63;488905;110;384633;-56
2021/03/26 00:11:46;;;;;;;;;29.90;25.80;;;;;0.81;49.65;100112.27;486512;110;387703;-50
2021/03/26 00:12:51;;;;;;;;;36.80;26.60;;;;;0.78;50.21;100117.55;484731;110;387400;-52
2021/03/26 00:13:55;;;;;;;;;31.40;27.30;;;;;0.83;49.74;100113.88;484585;110;384905;-56
2021/03/26 00:14:59;;;;;;;;;28.90;24.50;;;;;0.83;49.74;100113.88;487687;111;382362;-57
2021/03/26 00:16:04;;;;;;;;;33.90;30.10;;;;;0.83;50.06;100115.63;487837;111;385247;-52
2021/03/26 00:17:08;;;;;;;;;44.30;33.50;;;;;0.83;49.60;100108.71;484522;111;385674;-51
2021/03/26 00:18:13;;;;;;;;;32.90;29.20;;;;;0.83;49.60;100108.71;487714;111;385254;-56
2021/03/26 00:19:18;;;;;;;;;34.70;30.40;;;;;0.83;49.92;100111.30;487367;110;386359;-53
2021/03/26 00:20:23;;;;;;;;;40.20;28.00;;;;;0.81;49.90;100112.27;486511;111;387107;-55
2021/03/26 00:21:27;;;;;;;;;34.60;31.80;;;;;0.81;50.02;100112.27;487462;110;385864;-51
2021/03/26 00:22:31;;;;;;;;;24.10;14.70;;;;;0.79;50.33;100114.89;486110;110;382128;-55
2021/03/26 00:23:35;;;;;;;;;33.10;29.40;;;;;0.79;50.33;100114.89;487424;110;385008;-54
2021/03/26 00:24:39;;;;;;;;;36.50;29.10;;;;;0.77;50.66;100115.88;486665;111;385706;-54
2021/03/26 00:25:43;;;;;;;;;33.50;29.20;;;;;0.75;50.32;100108.20;486255;111;385445;-54
2021/03/26 00:26:47;;;;;;;;;35.20;31.90;;;;;0.75;50.32;100108.20;485774;111;384279;-53
2021/03/26 00:27:53;;;;;;;;;23.70;17.70;;;;;0.73;50.73;100111.77;484735;111;385398;-52
2021/03/26 00:28:58;;;;;;;;;36.00;28.80;;;;;0.73;50.73;100111.77;490183;110;386030;-55
2021/03/26 00:30:02;;;;;;;;;36.80;30.70;;;;;0.70;50.89;100117.07;493303;110;386111;-53
2021/03/26 00:31:06;;;;;;;;;32.10;21.80;;;;;0.66;51.18;100111.22;490610;110;383579;-51
2021/03/26 00:32:10;;;;;;;;;32.80;28.10;;;;;0.64;51.39;100115.61;483746;112;384275;-51
2021/03/26 00:33:14;;;;;;;;;30.30;26.60;;;;;0.67;51.37;100117.21;483576;112;383844;-57
2021/03/26 00:34:19;;;;;;;;;29.00;24.00;;;;;0.65;51.52;100114.70;489121;111;382781;-53
2021/03/26 00:35:24;;;;;;;;;32.90;27.50;;;;;0.65;51.50;100111.28;491379;110;383869;-54
2021/03/26 00:36:31;;;;;;;;;32.70;27.00;;;;;0.70;50.95;100117.07;492052;110;382876;-55
2021/03/26 00:37:35;;;;;;;;;34.20;29.70;;;;;0.66;51.71;100115.54;491486;110;384550;-51
2021/03/26 00:38:40;;;;;;;;;36.90;29.10;;;;;0.66;51.71;100115.54;491589;110;386028;-52
2021/03/26 00:39:44;;;;;;;;;28.90;25.10;;;;;0.66;51.74;100116.38;483534;112;384471;-53
2021/03/26 00:40:48;;;;;;;;;21.70;18.10;;;;;0.66;51.71;100116.38;491124;110;382836;-54
2021/03/26 00:41:52;;;;;;;;;40.50;32.00;;;;;0.60;52.13;100106.30;490564;110;385746;-57
2021/03/26 00:42:56;;;;;;;;;32.20;28.80;;;;;0.65;52.08;100113.87;492716;110;385429;-52
2021/03/26 00:44:00;;;;;;;;;35.20;30.10;;;;;0.61;52.14;100115.75;488559;110;384652;-54
2021/03/26 00:45:07;;;;;;;;;39.50;33.20;;;;;0.63;51.68;100113.94;492944;110;384978;-52
2021/03/26 00:46:11;;;;;;;;;30.10;25.40;;;;;0.64;51.82;100110.45;478888;112;384634;-52
2021/03/26 00:47:15;;;;;;;;;32.30;28.60;;;;;0.64;51.82;100110.45;483895;112;385156;-50
2021/03/26 00:48:20;;;;;;;;;25.40;16.10;;;;;0.58;52.41;100113.28;491468;110;381692;-56
2021/03/26 00:49:24;;;;;;;;;31.30;27.60;;;;;0.56;52.52;100115.09;492551;110;384896;-54
2021/03/26 00:50:30;;;;;;;;;40.80;34.10;;;;;0.58;52.52;100123.60;490568;110;386082;-53
2021/03/26 00:51:35;;;;;;;;;39.40;29.40;;;;;0.62;51.89;100114.01;491255;110;386216;-55
2021/03/26 00:52:38;;;;;;;;;37.30;30.80;;;;;0.63;51.82;100113.94;483329;112;385659;-52
2021/03/26 00:53:43;;;;;;;;;35.50;30.10;;;;;0.63;51.82;100113.94;476913;112;384997;-50
2021/03/26 00:54:47;;;;;;;;;35.60;29.40;;;;;0.63;52.57;100113.94;489893;110;386203;-55
2021/03/26 00:55:51;;;;;;;;;37.40;34.20;;;;;0.63;52.57;100113.94;491515;110;386194;-54
2021/03/26 00:56:55;;;;;;;;;27.00;22.70;;;;;0.59;52.89;100114.95;491347;110;384194;-53
2021/03/26 00:58:01;;;;;;;;;22.40;18.60;;;;;0.57;52.78;100120.19;492746;108;382521;-55
2021/03/26 00:59:05;;;;;;;;;33.40;28.00;;;;;0.58;52.75;100113.28;491248;110;384378;-54
2021/03/26 01:00:12;;;;;;;;;32.00;26.60;;;;;0.60;52.76;100120.08;491179;110;385496;-51
2021/03/26 01:01:16;;;;;;;;;30.50;25.90;;;;;0.54;53.29;100120.33;488621;111;382897;-57
2021/03/26 01:02:21;;;;;;;;;33.10;30.20;;;;;0.56;52.91;100121.09;491810;110;392528;-51
2021/03/26 01:03:25;;;;;;;;;31.90;27.70;;;;;0.57;53.09;100112.44;490847;110;384020;-51
2021/03/26 01:04:29;;;;;;;;;34.20;26.00;;;;;0.54;53.50;100120.33;488561;110;385334;-52
2021/03/26 01:05:35;;;;;;;;;28.90;22.80;;;;;0.62;52.47;100116.59;490881;110;383361;-54
2021/03/26 01:06:39;;;;;;;;;27.20;22.90;;;;;0.55;53.41;100118.58;489667;110;382875;-55
2021/03/26 01:07:45;;;;;;;;;37.00;26.20;;;;;0.57;53.39;100124.51;489780;111;386653;-57
2021/03/26 01:08:49;;;;;;;;;35.40;29.60;;;;;0.57;53.19;100124.51;492321;110;386126;-52
2021/03/26 01:09:53;;;;;;;;;36.10;27.70;;;;;0.58;53.52;100121.02;491641;110;385858;-52
2021/03/26 01:10:58;;;;;;;;;33.40;26.30;;;;;0.58;53.62;100121.02;493670;110;385158;-53
2021/03/26 01:12:03;;;;;;;;;31.10;26.30;;;;;0.64;53.20;100122.52;491047;110;391455;-52
2021/03/26 01:13:08;;;;;;;;;32.60;23.60;;;;;0.57;53.63;100120.19;491480;110;384188;-56
2021/03/26 01:14:14;;;;;;;;;34.10;29.10;;;;;0.55;53.82;100127.16;489030;110;385296;-55
2021/03/26 01:15:19;;;;;;;;;28.00;20.70;;;;;0.54;53.92;100116.91;491816;110;389582;-51
2021/03/26 01:16:25;;;;;;;;;20.90;17.10;;;;;0.58;53.78;100121.86;492573;110;378405;-51
2021/03/26 01:17:29;;;;;;;;;30.50;24.70;;;;;0.59;53.49;100122.70;493221;110;385807;-53
2021/03/26 01:18:37;;;;;;;;;30.60;25.70;;;;;0.55;53.97;100118.58;491531;110;384464;-55
2021/03/26 01:19:43;;;;;;;;;31.90;26.30;;;;;0.57;54.02;100119.34;484943;110;390969;-57
2021/03/26 01:20:47;;;;;;;;;34.20;30.80;;;;;0.51;54.41;100117.89;492896;110;384911;-54
2021/03/26 01:21:51;;;;;;;;;26.30;23.00;;;;;0.50;54.62;100118.80;493068;110;381639;-53
2021/03/26 01:22:55;;;;;;;;;31.70;24.90;;;;;0.58;54.15;100121.02;493851;110;385923;-54
2021/03/26 01:23:59;;;;;;;;;31.10;25.10;;;;;0.58;54.15;100121.02;491130;110;385586;-53
2021/03/26 01:25:06;;;;;;;;;27.50;25.80;;;;;0.60;53.64;100117.50;485253;111;383720;-54
2021/03/26 01:26:10;;;;;;;;;24.90;22.00;;;;;0.56;54.40;100118.52;491120;110;382436;-52
2021/03/26 01:27:15;;;;;;;;;28.60;22.10;;;;;0.58;54.01;100115.86;491812;110;382882;-56
2021/03/26 01:28:21;;;;;;;;;17.70;13.40;;;;;0.58;54.01;100115.86;473881;114;380528;-55
2021/03/26 01:29:26;;;;;;;;;29.90;24.10;;;;;0.55;54.63;100116.84;473647;114;382742;-55
2021/03/26 01:30:31;;;;;;;;;29.20;21.90;;;;;0.55;54.45;100116.00;475403;114;382203;-54
2021/03/26 01:31:35;;;;;;;;;32.40;24.50;;;;;0.56;54.53;100118.52;473613;114;384293;-55
2021/03/26 01:32:39;;;;;;;;;28.90;24.40;;;;;0.59;54.37;100123.53;475115;114;382955;-54
2021/03/26 01:33:44;;;;;;;;;31.50;25.70;;;;;0.59;54.37;100123.53;473146;114;385913;-52
2021/03/26 01:34:49;;;;;;;;;16.60;14.90;;;;;0.56;54.56;100128.84;475260;115;379357;-55
2021/03/26 01:35:52;;;;;;;;;31.90;22.20;;;;;0.57;54.48;100127.09;467120;116;385030;-53
2021/03/26 01:36:56;;;;;;;;;29.90;23.60;;;;;0.57;54.70;100127.09;475742;113;384693;-53
2021/03/26 01:38:00;;;;;;;;;29.50;23.50;;;;;0.57;54.50;100127.93;473270;114;384566;-53
2021/03/26 01:39:06;;;;;;;;;33.00;26.60;;;;;0.57;54.59;100124.51;472254;114;383973;-53
2021/03/26 01:40:14;;;;;;;;;30.90;25.90;;;;;0.60;54.02;100125.23;474310;114;385208;-54
2021/03/26 01:41:28;;;;;;;;;22.30;17.60;;;;;0.55;54.50;100129.74;474636;114;382708;-54
2021/03/26 01:42:33;;;;;;;;;16.90;16.70;;;;;0.58;54.34;100121.86;475388;113;380594;-53
2021/03/26 01:43:38;;;;;;;;;30.30;20.70;;;;;0.65;53.84;100130.19;474742;114;382631;-59
2021/03/26 01:44:42;;;;;;;;;26.90;22.80;;;;;0.66;53.49;100131.86;469948;115;382214;-52
2021/03/26 01:45:47;;;;;;;;;22.80;19.90;;;;;0.66;53.49;100131.86;474870;115;382310;-53
2021/03/26 01:46:51;;;;;;;;;23.50;21.20;;;;;0.65;54.00;100126.77;474217;114;382495;-53
2021/03/26 01:47:55;;;;;;;;;26.30;22.40;;;;;0.66;53.80;100128.45;491539;110;384292;-54
2021/03/26 01:49:01;;;;;;;;;24.90;20.80;;;;;0.66;53.87;100129.28;491300;110;382382;-53
2021/03/26 01:50:07;;;;;;;;;23.80;17.10;;;;;0.65;53.78;100122.45;491637;110;388217;-53
2021/03/26 01:51:14;;;;;;;;;21.60;16.60;;;;;0.68;53.52;100131.79;486834;110;389556;-50
2021/03/26 01:52:18;;;;;;;;;32.10;25.30;;;;;0.63;54.16;100123.42;489781;111;384425;-55
2021/03/26 01:53:23;;;;;;;;;17.20;17.20;;;;;0.67;53.67;100130.95;491422;110;380893;-54
2021/03/26 01:54:27;;;;;;;;;29.10;23.50;;;;;0.71;53.47;100137.64;491352;111;384835;-52
2021/03/26 01:55:33;;;;;;;;;19.90;15.00;;;;;0.70;53.42;100125.65;492937;110;381691;-54
2021/03/26 01:56:37;;;;;;;;;24.20;22.00;;;;;0.72;53.46;100131.58;492911;110;381413;-53
2021/03/26 01:57:42;;;;;;;;;17.70;11.80;;;;;0.74;53.38;100134.09;491455;111;377854;-52
2021/03/26 01:58:48;;;;;;;;;24.70;20.00;;;;;0.74;53.38;100134.09;488333;110;381603;-55
2021/03/26 01:59:52;;;;;;;;;24.10;21.00;;;;;0.77;53.18;100134.78;492909;110;382862;-52
2021/03/26 02:00:57;;;;;;;;;27.00;22.50;;;;;0.67;53.17;100114.63;476794;113;383378;-53
2021/03/26 02:02:05;;;;;;;;;25.00;20.20;;;;;0.81;52.97;100127.77;490220;110;389707;-55
2021/03/26 02:03:09;;;;;;;;;20.70;16.70;;;;;0.82;53.06;100129.44;492431;110;388709;-51
2021/03/26 02:04:20;;;;;;;;;19.60;15.70;;;;;0.79;53.30;100132.13;492865;110;381471;-55
2021/03/26 02:05:27;;;;;;;;;21.30;18.40;;;;;0.79;53.30;100132.13;490832;110;382126;-55
2021/03/26 02:06:31;;;;;;;;;24.30;20.50;;;;;0.83;53.20;100136.27;496030;109;382805;-55
2021/03/26 02:07:36;;;;;;;;;24.00;17.70;;;;;0.83;53.20;100136.27;496315;109;383057;-56
2021/03/26 02:08:40;;;;;;;;;21.20;16.40;;;;;0.78;53.34;100131.29;496985;109;382627;-51
2021/03/26 02:09:44;;;;;;;;;26.00;19.60;;;;;0.79;53.17;100140.70;492791;110;381241;-52
2021/03/26 02:10:48;;;;;;;;;11.60;7.00;;;;;0.84;52.85;100138.78;493848;109;376464;-52
2021/03/26 02:11:54;;;;;;;;;20.80;17.40;;;;;0.86;52.75;100134.38;495637;110;382394;-54
2021/03/26 02:13:02;;;;;;;;;19.90;17.70;;;;;0.88;52.69;100139.48;494103;109;382018;-54
2021/03/26 02:14:09;;;;;;;;;23.30;21.30;;;;;0.88;52.69;100139.48;494668;109;384423;-54
2021/03/26 02:15:17;;;;;;;;;20.90;17.40;;;;;0.85;52.99;100137.03;490509;109;382192;-55
2021/03/26 02:16:22;;;;;;;;;20.70;17.40;;;;;0.86;52.92;100133.55;495164;109;381675;-55
2021/03/26 02:17:28;;;;;;;;;23.20;18.90;;;;;0.88;52.56;100137.73;496529;109;383137;-51
2021/03/26 02:18:33;;;;;;;;;20.60;17.50;;;;;0.89;52.41;100135.98;496137;109;381412;-52
2021/03/26 02:19:39;;;;;;;;;19.10;16.00;;;;;0.93;52.24;100136.67;496257;109;381861;-52
2021/03/26 02:20:47;;;;;;;;;23.40;19.40;;;;;0.90;52.26;100138.49;496268;109;382996;-52
2021/03/26 02:21:51;;;;;;;;;19.50;14.20;;;;;0.95;52.20;100140.86;495836;109;381355;-54
2021/03/26 02:22:56;;;;;;;;;17.00;15.30;;;;;0.98;51.98;100137.30;496291;109;380209;-54
2021/03/26 02:24:03;;;;;;;;;21.00;17.80;;;;;0.98;51.97;100135.55;496096;109;382283;-52
2021/03/26 02:25:09;;;;;;;;;21.20;16.60;;;;;1.00;51.83;100138.06;496088;109;381309;-55
2021/03/26 02:26:18;;;;;;;;;18.50;17.90;;;;;0.98;51.93;100135.55;493516;109;381673;-55
2021/03/26 02:27:24;;;;;;;;;18.80;16.10;;;;;0.99;51.90;100134.64;494631;109;380933;-53
2021/03/26 02:28:28;;;;;;;;;15.20;14.40;;;;;0.93;52.11;100134.09;496213;109;380642;-55
2021/03/26 02:29:34;;;;;;;;;21.00;15.70;;;;;0.97;51.87;100138.20;496467;109;382986;-54
2021/03/26 02:30:41;;;;;;;;;21.40;19.00;;;;;1.00;51.78;100140.64;496579;109;382369;-52
2021/03/26 02:31:45;;;;;;;;;21.90;18.00;;;;;1.01;51.59;100134.60;493320;109;387948;-56
2021/03/26 02:32:49;;;;;;;;;23.90;20.10;;;;;1.01;51.68;100135.44;491429;110;381337;-52
2021/03/26 02:33:54;;;;;;;;;19.00;15.50;;;;;1.00;51.75;100135.48;494315;109;382437;-51
2021/03/26 02:35:12;;;;;;;;;20.50;16.30;;;;;0.98;51.81;100140.71;495839;109;384106;-54
2021/03/26 02:36:41;;;;;;;;;20.50;17.00;;;;;0.98;51.81;100140.71;493546;109;382536;-54
2021/03/26 02:37:48;;;;;;;;;15.90;12.70;;;;;1.00;51.52;100145.80;492451;109;379605;-53
2021/03/26 02:38:54;;;;;;;;;22.80;17.80;;;;;1.00;51.52;100145.80;494353;109;389331;-54
2021/03/26 02:39:58;;;;;;;;;18.60;15.00;;;;;1.00;51.59;100140.64;496293;109;381955;-55
2021/03/26 02:41:03;;;;;;;;;21.70;17.80;;;;;1.00;51.80;100140.64;496519;109;382401;-52
2021/03/26 02:42:15;;;;;;;;;21.40;19.00;;;;;1.01;51.74;100142.34;494575;109;381733;-56
2021/03/26 02:43:35;;;;;;;;;21.70;17.10;;;;;1.01;51.74;100142.34;491561;109;381055;-53
2021/03/26 02:44:47;;;;;;;;;18.30;15.70;;;;;0.93;52.31;100140.09;494363;109;381242;-51
2021/03/26 02:45:55;;;;;;;;;22.40;16.60;;;;;0.94;52.16;100140.93;491685;109;382228;-53
2021/03/26 02:47:05;;;;;;;;;17.80;15.50;;;;;0.92;52.11;100143.58;496103;109;381145;-57
2021/03/26 02:48:14;;;;;;;;;19.10;14.00;;;;;0.92;52.11;100143.58;493238;110;381849;-52
2021/03/26 02:49:21;;;;;;;;;20.90;19.40;;;;;0.90;52.50;100142.82;492849;109;381423;-54
2021/03/26 02:50:33;;;;;;;;;18.70;16.60;;;;;0.89;52.48;100141.98;496056;109;385691;-54
2021/03/26 02:51:39;;;;;;;;;19.60;15.70;;;;;0.89;52.55;100151.47;496642;109;381936;-55
2021/03/26 02:52:46;;;;;;;;;21.30;17.10;;;;;0.89;52.61;100151.47;491301;109;382151;-53
2021/03/26 02:53:57;;;;;;;;;20.20;16.20;;;;;0.89;52.61;100151.47;496288;109;381950;-54
2021/03/26 02:55:05;;;;;;;;;20.00;14.40;;;;;0.88;52.70;100154.97;495628;109;386802;-53
2021/03/26 02:56:12;;;;;;;;;20.30;18.70;;;;;0.85;52.61;100147.36;496129;109;381577;-55
2021/03/26 02:57:17;;;;;;;;;19.60;16.90;;;;;0.85;52.61;100147.36;492437;109;380724;-52
2021/03/26 02:58:24;;;;;;;;;14.90;13.60;;;;;0.82;52.75;100152.67;496131;109;380398;-55
2021/03/26 02:59:33;;;;;;;;;15.90;13.60;;;;;0.82;52.75;100152.67;494586;109;380660;-55
2021/03/26 03:00:40;;;;;;;;;18.60;15.50;;;;;0.82;52.76;100153.50;493057;109;381676;-53
2021/03/26 03:01:47;;;;;;;;;24.40;19.00;;;;;0.84;52.63;100151.69;490398;109;388574;-54
2021/03/26 03:02:52;;;;;;;;;18.10;15.70;;;;;0.81;53.15;100157.00;494923;109;380120;-55
2021/03/26 03:03:59;;;;;;;;;19.20;14.60;;;;;0.81;53.15;100157.00;495560;109;381252;-55
2021/03/26 03:05:06;;;;;;;;;18.40;13.50;;;;;0.83;52.93;100150.02;494751;109;381856;-53
2021/03/26 03:06:15;;;;;;;;;18.80;14.20;;;;;0.77;53.56;100154.59;492296;110;380814;-58
2021/03/26 03:07:21;;;;;;;;;18.50;17.60;;;;;0.79;53.61;100156.20;490640;110;381430;-55
2021/03/26 03:08:26;;;;;;;;;16.90;13.40;;;;;0.76;53.74;100151.17;491467;110;380816;-53
2021/03/26 03:09:30;;;;;;;;;19.10;16.00;;;;;0.72;54.29;100156.55;490893;110;382320;-52
2021/03/26 03:10:37;;;;;;;;;14.40;13.40;;;;;0.72;54.29;100156.55;491105;111;380751;-53
2021/03/26 03:11:43;;;;;;;;;14.20;13.20;;;;;0.79;53.45;100160.52;485686;111;385533;-55
2021/03/26 03:12:47;;;;;;;;;17.30;15.10;;;;;0.76;54.10;100158.09;491102;110;381588;-55
2021/03/26 03:13:53;;;;;;;;;14.80;9.60;;;;;0.74;54.32;100162.48;487894;110;385831;-52
2021/03/26 03:15:00;;;;;;;;;21.00;16.70;;;;;0.77;53.82;100164.92;490051;111;385443;-53
2021/03/26 03:16:08;;;;;;;;;19.00;17.00;;;;;0.71;54.53;100160.88;491395;111;383060;-56
2021/03/26 03:17:15;;;;;;;;;12.90;9.70;;;;;0.73;54.28;100164.22;486738;111;378455;-53
2021/03/26 03:18:23;;;;;;;;;17.50;14.90;;;;;0.67;54.63;100164.50;490841;110;380904;-53
2021/03/26 03:19:35;;;;;;;;;20.60;17.50;;;;;0.68;54.24;100168.77;490504;111;387454;-54
2021/03/26 03:20:43;;;;;;;;;21.40;14.80;;;;;0.68;54.56;100171.34;489096;111;382362;-52
2021/03/26 03:21:49;;;;;;;;;20.20;16.70;;;;;0.67;54.49;100169.67;487272;111;381503;-54
2021/03/26 03:22:56;;;;;;;;;19.20;16.60;;;;;0.66;54.55;100169.73;489557;110;382554;-55
2021/03/26 03:24:06;;;;;;;;;13.00;9.60;;;;;0.67;54.98;100168.83;486893;109;377587;-52
2021/03/26 03:25:13;;;;;;;;;18.70;17.70;;;;;0.67;54.98;100168.83;490934;110;382586;-54
2021/03/26 03:26:22;;;;;;;;;17.40;15.40;;;;;0.68;54.76;100175.66;488364;110;381677;-52
2021/03/26 03:27:34;;;;;;;;;19.90;14.10;;;;;0.64;55.04;100169.80;489687;110;380021;-53
2021/03/26 03:28:41;;;;;;;;;16.70;13.70;;;;;0.65;54.86;100174.06;490927;110;381059;-52
2021/03/26 03:29:47;;;;;;;;;16.80;15.50;;;;;0.69;54.83;100177.34;491340;110;382311;-52
2021/03/26 03:30:56;;;;;;;;;20.30;15.60;;;;;0.67;55.07;100182.57;491521;111;381779;-52
2021/03/26 03:32:04;;;;;;;;;23.90;15.30;;;;;0.69;54.49;100180.76;488361;111;382724;-54
2021/03/26 03:33:12;;;;;;;;;19.20;16.90;;;;;0.70;55.29;100186.76;488903;111;382893;-56
2021/03/26 03:34:22;;;;;;;;;22.10;16.30;;;;;0.68;55.02;100179.08;488026;111;383314;-54
2021/03/26 03:35:30;;;;;;;;;12.30;8.40;;;;;0.68;54.27;100184.25;482729;110;374745;-54
2021/03/26 03:36:40;;;;;;;;;19.70;16.80;;;;;0.67;55.00;100187.73;490050;110;382580;-53
2021/03/26 03:37:47;;;;;;;;;16.00;11.20;;;;;0.67;54.61;100182.57;484695;110;377163;-56
2021/03/26 03:38:54;;;;;;;;;20.40;17.60;;;;;0.63;55.00;100183.62;490435;110;385735;-54
2021/03/26 03:40:03;;;;;;;;;23.20;17.90;;;;;0.55;55.90;100181.35;491304;110;382265;-55
2021/03/26 03:41:08;;;;;;;;;16.80;14.60;;;;;0.59;55.52;100184.62;488576;110;378640;-53
2021/03/26 03:42:17;;;;;;;;;20.10;16.60;;;;;0.60;55.08;100181.14;486631;111;382751;-50
2021/03/26 03:43:23;;;;;;;;;18.30;16.20;;;;;0.59;56.03;100184.62;488724;111;380981;-53
2021/03/26 03:44:32;;;;;;;;;6.20;2.10;;;;;0.59;55.53;100187.20;489972;111;371212;-56
2021/03/26 03:45:40;;;;;;;;;21.30;17.00;;;;;0.53;56.55;100174.58;487825;110;383099;-52
2021/03/26 03:46:51;;;;;;;;;8.50;5.20;;;;;0.50;56.80;100182.46;485915;111;373341;-51
2021/03/26 03:47:57;;;;;;;;;15.70;15.60;;;;;0.50;56.80;100182.46;490851;110;381181;-52
2021/03/26 03:49:05;;;;;;;;;20.20;17.30;;;;;0.52;56.36;100178.07;490701;110;382726;-55
2021/03/26 03:50:13;;;;;;;;;20.00;16.50;;;;;0.49;57.10;100178.20;490858;110;382273;-54
2021/03/26 03:51:18;;;;;;;;;19.70;15.60;;;;;0.49;57.10;100178.20;488768;111;382018;-51
2021/03/26 03:52:24;;;;;;;;;17.50;14.30;;;;;0.49;57.21;100183.37;491516;110;386655;-52
2021/03/26 03:53:30;;;;;;;;;21.70;15.80;;;;;0.52;56.55;100180.65;490004;110;383356;-55
2021/03/26 03:54:36;;;;;;;;;23.10;17.10;;;;;0.49;57.06;100178.20;490454;110;382564;-52
2021/03/26 03:55:42;;;;;;;;;21.10;16.30;;;;;0.49;57.06;100178.20;491767;110;382821;-57
2021/03/26 03:56:47;;;;;;;;;19.40;15.30;;;;;0.49;57.57;100179.05;489683;111;385915;-53
2021/03/26 03:57:55;;;;;;;;;25.60;20.80;;;;;0.41;58.42;100175.13;489444;110;382918;-55
2021/03/26 03:59:00;;;;;;;;;19.10;12.80;;;;;0.40;58.49;100173.42;488336;110;381984;-53
2021/03/26 04:00:09;;;;;;;;;20.60;16.90;;;;;0.40;58.61;100184.61;491494;110;382984;-56
2021/03/26 04:01:15;;;;;;;;;17.10;15.30;;;;;0.40;58.78;100181.16;486993;110;381934;-57
2021/03/26 04:02:21;;;;;;;;;23.50;19.50;;;;;0.28;58.69;100193.70;490917;110;382619;-54
2021/03/26 04:03:28;;;;;;;;;24.00;18.30;;;;;0.36;59.37;100188.20;490303;110;381224;-55
2021/03/26 04:04:36;;;;;;;;;10.33;7.33;;;;;0.32;59.53;100181.50;490847;110;373907;-54
2021/03/26 04:05:43;;;;;;;;;20.80;18.20;;;;;0.30;59.76;100186.73;488148;110;381998;-51
2021/03/26 04:06:49;;;;;;;;;27.40;20.70;;;;;0.29;59.65;100182.48;486482;110;382629;-54
2021/03/26 04:07:56;;;;;;;;;20.30;18.00;;;;;0.29;59.65;100182.48;495543;109;382293;-54
2021/03/26 04:09:02;;;;;;;;;23.20;20.60;;;;;0.28;59.81;100185.95;495700;109;380883;-51
2021/03/26 04:10:09;;;;;;;;;22.60;20.60;;;;;0.34;59.04;100186.59;494777;109;389299;-56
2021/03/26 04:11:15;;;;;;;;;24.00;18.50;;;;;0.34;59.04;100186.59;492095;110;382445;-57
2021/03/26 04:12:20;;;;;;;;;26.80;20.10;;;;;0.34;60.13;100191.75;496346;109;383149;-54
2021/03/26 04:13:26;;;;;;;;;26.50;22.00;;;;;0.36;59.76;100185.63;496170;109;381781;-53
2021/03/26 04:14:32;;;;;;;;;25.70;19.60;;;;;0.35;60.66;100185.69;496109;109;383056;-55
2021/03/26 04:15:39;;;;;;;;;18.20;10.60;;;;;0.45;60.32;100192.15;496273;109;380735;-53
2021/03/26 04:16:45;;;;;;;;;26.70;18.60;;;;;0.45;60.32;100192.15;493663;109;382859;-56
2021/03/26 04:17:54;;;;;;;;;26.80;21.60;;;;;0.60;59.78;100191.47;492978;109;382364;-54
2021/03/26 04:19:03;;;;;;;;;20.10;19.40;;;;;0.79;59.68;100191.50;492590;109;382764;-52
2021/03/26 04:20:12;;;;;;;;;23.10;16.50;;;;;0.92;60.42;100190.06;495172;109;386607;-55
2021/03/26 04:21:18;;;;;;;;;26.00;20.00;;;;;1.12;60.03;100187.41;492530;109;383218;-53
2021/03/26 04:22:23;;;;;;;;;25.50;22.40;;;;;1.33;59.55;100189.92;494653;109;381050;-53
2021/03/26 04:23:30;;;;;;;;;29.70;24.00;;;;;1.53;59.26;100189.83;495457;109;385049;-55
2021/03/26 04:24:36;;;;;;;;;26.50;22.40;;;;;1.73;58.96;100189.71;496495;109;384042;-55
2021/03/26 04:25:42;;;;;;;;;27.30;22.20;;;;;2.06;58.54;100183.82;494504;109;384792;-53
2021/03/26 04:26:47;;;;;;;;;26.50;21.30;;;;;2.26;57.84;100191.42;495488;109;384977;-54
2021/03/26 04:27:55;;;;;;;;;27.10;25.70;;;;;2.53;56.79;100194.36;490810;109;385790;-52
2021/03/26 04:29:03;;;;;;;;;28.70;24.40;;;;;2.57;56.19;100192.45;496276;109;383241;-52
2021/03/26 04:30:09;;;;;;;;;34.20;27.40;;;;;2.83;56.18;100199.72;495912;109;383496;-55
2021/03/26 04:31:16;;;;;;;;;40.60;34.80;;;;;2.89;55.14;100193.37;491962;110;387087;-57
2021/03/26 04:32:20;;;;;;;;;33.30;29.60;;;;;2.72;55.09;100195.09;492958;109;384800;-53
2021/03/26 04:33:24;;;;;;;;;41.50;34.60;;;;;2.69;55.20;100200.42;495721;109;386025;-57
2021/03/26 04:34:28;;;;;;;;;37.00;29.40;;;;;2.44;55.84;100206.03;488688;111;383452;-54
2021/03/26 04:35:33;;;;;;;;;36.60;29.70;;;;;2.44;55.84;100206.03;489497;111;385080;-60
2021/03/26 04:36:41;;;;;;;;;45.90;40.60;;;;;2.41;55.93;100203.60;496316;109;386540;-55
2021/03/26 04:37:48;;;;;;;;;53.70;40.20;;;;;2.19;56.51;100202.14;493046;109;387271;-53
2021/03/26 04:38:56;;;;;;;;;52.90;39.70;;;;;2.19;56.51;100202.14;494854;109;389038;-51
2021/03/26 04:40:04;;;;;;;;;38.60;32.70;;;;;2.15;56.36;100206.63;493627;109;384711;-52
2021/03/26 04:41:13;;;;;;;;;40.50;37.20;;;;;2.01;56.71;100209.92;492293;109;385757;-53
2021/03/26 04:42:20;;;;;;;;;52.60;37.70;;;;;1.88;57.61;100208.00;492768;110;387930;-54
2021/03/26 04:43:28;;;;;;;;;46.00;35.10;;;;;1.81;57.70;100215.22;494479;109;387263;-56
2021/03/26 04:44:34;;;;;;;;;50.80;39.80;;;;;1.65;58.58;100212.52;493764;109;388696;-54
2021/03/26 04:45:43;;;;;;;;;43.60;35.60;;;;;1.59;58.43;100219.70;496236;109;387968;-52
2021/03/26 04:46:52;;;;;;;;;40.10;34.50;;;;;1.50;58.77;100216.66;492364;109;386097;-54
2021/03/26 04:48:00;;;;;;;;;43.90;33.50;;;;;1.39;59.71;100216.30;495681;109;386436;-55
2021/03/26 04:49:05;;;;;;;;;40.50;34.70;;;;;1.40;59.05;100212.84;495385;109;384460;-53
2021/03/26 04:50:14;;;;;;;;;44.30;37.20;;;;;1.30;59.97;100219.32;496020;109;391778;-51
2021/03/26 04:51:22;;;;;;;;;45.90;37.60;;;;;1.25;60.45;100220.45;490624;109;393906;-54
2021/03/26 04:52:31;;;;;;;;;32.50;26.70;;;;;1.20;60.28;100221.50;493451;109;389705;-51
2021/03/26 04:53:38;;;;;;;;;33.90;26.20;;;;;1.06;61.38;100221.27;495351;109;386523;-57
2021/03/26 04:54:46;;;;;;;;;29.10;24.90;;;;;1.13;60.13;100220.08;496202;109;384080;-55
2021/03/26 04:55:53;;;;;;;;;35.60;31.90;;;;;1.11;60.12;100213.31;496088;109;384869;-53
2021/03/26 04:56:58;;;;;;;;;38.30;32.90;;;;;1.06;60.98;100217.86;496543;109;386326;-56
2021/03/26 04:58:03;;;;;;;;;36.10;32.20;;;;;1.06;60.98;100217.86;495970;109;383936;-54
2021/03/26 04:59:08;;;;;;;;;34.50;29.90;;;;;1.01;62.09;100217.23;496011;109;391760;-57
2021/03/26 05:00:15;;;;;;;;;37.50;29.60;;;;;1.03;61.99;100223.16;496542;109;385587;-55
2021/03/26 05:01:20;;;;;;;;;38.60;30.20;;;;;1.00;62.05;100224.14;496321;109;385065;-52